TimeHST,TemperatureF,Dew PointF,Humidity,Sea Level PressureIn,VisibilityMPH,Wind Direction,Wind SpeedMPH,Gust SpeedMPH,PrecipitationIn,Events,Conditions,WindDirDegrees,DateUTC
12:24 AM,69.8,64.4,83,30.08,10.0,NE,16.1,24.2,0.01,,Overcast,40,2013-03-28 10:24:00
12:32 AM,69.8,64.4,83,30.08,10.0,NE,21.9,26.5,0.01,,Overcast,50,2013-03-28 10:32:00
12:39 AM,69.8,64.4,83,30.08,10.0,NE,18.4,-,0.01,,Overcast,50,2013-03-28 10:39:00
12:53 AM,70.0,64.4,82,30.07,10.0,NE,18.4,-,0.01,Rain,Light Rain,40,2013-03-28 10:53:00
1:31 AM,69.8,64.4,83,30.07,10.0,NNE,16.1,-,0.00,,Mostly Cloudy,30,2013-03-28 11:31:00
1:53 AM,69.1,64.4,85,30.06,10.0,NNE,15.0,-,0.00,,Overcast,20,2013-03-28 11:53:00
2:12 AM,69.8,64.4,83,30.06,10.0,NNE,17.3,-,0.00,,Overcast,30,2013-03-28 12:12:00
2:53 AM,69.1,64.6,86,30.05,10.0,NNE,16.1,-,0.00,,Mostly Cloudy,30,2013-03-28 12:53:00
3:20 AM,69.8,64.4,83,30.05,8.0,North,13.8,31.1,0.00,Rain,Light Rain,10,2013-03-28 13:20:00
3:53 AM,69.1,64.2,84,30.03,10.0,NNE,17.3,-,0.00,,Scattered Clouds,30,2013-03-28 13:53:00
4:53 AM,68.0,64.4,88,30.04,10.0,NNE,15.0,-,N/A,,Mostly Cloudy,20,2013-03-28 14:53:00
5:23 AM,68.0,64.4,88,30.05,10.0,North,11.5,-,N/A,,Overcast,350,2013-03-28 15:23:00
5:33 AM,68.0,64.4,88,30.05,10.0,North,9.2,-,N/A,,Overcast,10,2013-03-28 15:33:00
5:53 AM,68.0,64.4,88,30.05,10.0,North,10.4,-,N/A,,Mostly Cloudy,360,2013-03-28 15:53:00
6:04 AM,66.2,64.4,94,30.06,10.0,NNW,9.2,-,N/A,,Partly Cloudy,340,2013-03-28 16:04:00
6:21 AM,66.2,64.4,94,30.06,10.0,North,10.4,-,0.00,Rain,Light Rain,350,2013-03-28 16:21:00
6:41 AM,66.2,64.4,94,30.07,10.0,NNW,9.2,-,0.00,,Mostly Cloudy,340,2013-03-28 16:41:00
6:53 AM,66.9,63.9,90,30.06,10.0,NE,15.0,18.4,0.00,,Mostly Cloudy,40,2013-03-28 16:53:00
7:41 AM,68.0,66.2,94,30.08,10.0,NNE,12.7,-,N/A,,Mostly Cloudy,30,2013-03-28 17:41:00
7:53 AM,68.0,66.2,94,30.08,10.0,NE,17.3,-,N/A,,Overcast,40,2013-03-28 17:53:00
7:56 AM,71.6,66.2,83,30.09,10.0,NE,16.1,-,N/A,,Mostly Cloudy,40,2013-03-28 17:56:00
8:10 AM,71.6,66.2,83,30.09,10.0,NE,16.1,-,N/A,,Mostly Cloudy,40,2013-03-28 18:10:00
8:26 AM,71.6,66.2,83,30.10,10.0,NE,17.3,-,N/A,,Mostly Cloudy,40,2013-03-28 18:26:00
8:53 AM,72.0,66.2,82,30.10,10.0,NE,18.4,-,N/A,,Mostly Cloudy,40,2013-03-28 18:53:00
9:53 AM,75.0,66.0,73,30.10,10.0,NE,16.1,-,N/A,,Mostly Cloudy,40,2013-03-28 19:53:00
10:06 AM,73.4,66.2,78,30.11,10.0,NE,17.3,-,N/A,,Scattered Clouds,40,2013-03-28 20:06:00
10:13 AM,75.2,66.2,73,30.11,10.0,NNE,13.8,23.0,N/A,,Mostly Cloudy,30,2013-03-28 20:13:00
10:53 AM,73.9,69.1,85,30.10,10.0,NNE,15.0,-,0.02,,Mostly Cloudy,30,2013-03-28 20:53:00
11:20 AM,73.4,66.2,78,30.10,10.0,NNE,18.4,-,N/A,,Mostly Cloudy,30,2013-03-28 21:20:00
11:50 AM,75.2,66.2,73,30.09,10.0,NE,16.1,-,0.00,,Mostly Cloudy,50,2013-03-28 21:50:00
11:53 AM,75.0,66.0,73,30.09,10.0,ENE,16.1,-,0.00,,Mostly Cloudy,60,2013-03-28 21:53:00
12:11 PM,73.4,66.2,78,30.08,10.0,NE,17.3,-,N/A,,Mostly Cloudy,40,2013-03-28 22:11:00
12:29 PM,75.2,66.2,73,30.08,10.0,NE,16.1,-,N/A,,Scattered Clouds,50,2013-03-28 22:29:00
12:53 PM,75.9,66.0,71,30.06,10.0,NE,17.3,-,N/A,,Scattered Clouds,50,2013-03-28 22:53:00
1:53 PM,75.9,64.9,69,30.04,10.0,NE,16.1,-,N/A,,Scattered Clouds,50,2013-03-28 23:53:00
2:34 PM,75.2,66.2,73,30.03,10.0,NE,17.3,-,N/A,,Mostly Cloudy,50,2013-03-29 00:34:00
2:43 PM,77.0,66.2,69,30.03,10.0,NE,18.4,-,N/A,,Scattered Clouds,50,2013-03-29 00:43:00
2:53 PM,75.0,64.9,71,30.02,10.0,NE,18.4,-,N/A,,Partly Cloudy,50,2013-03-29 00:53:00
3:53 PM,75.0,64.9,71,30.01,10.0,NE,16.1,-,N/A,,Scattered Clouds,50,2013-03-29 01:53:00
4:53 PM,73.9,64.9,73,30.02,10.0,NE,17.3,-,N/A,,Mostly Cloudy,50,2013-03-29 02:53:00
5:26 PM,73.4,64.4,73,30.03,10.0,ENE,13.8,-,N/A,,Scattered Clouds,60,2013-03-29 03:26:00
5:53 PM,72.0,64.0,76,30.03,10.0,NE,15.0,-,N/A,,Mostly Cloudy,40,2013-03-29 03:53:00
6:43 PM,71.6,64.4,78,30.04,10.0,NE,15.0,-,N/A,,Scattered Clouds,40,2013-03-29 04:43:00
6:53 PM,72.0,64.0,76,30.04,10.0,NE,16.1,-,N/A,,Mostly Cloudy,50,2013-03-29 04:53:00
7:01 PM,71.6,64.4,78,30.04,10.0,NE,17.3,-,N/A,,Scattered Clouds,50,2013-03-29 05:01:00
7:53 PM,71.1,64.0,78,30.06,10.0,NE,15.0,-,N/A,,Mostly Cloudy,50,2013-03-29 05:53:00
8:53 PM,71.1,64.9,81,30.07,10.0,NE,16.1,-,N/A,,Mostly Cloudy,50,2013-03-29 06:53:00
9:16 PM,71.6,64.4,78,30.08,10.0,ENE,13.8,-,N/A,,Mostly Cloudy,60,2013-03-29 07:16:00
9:28 PM,71.6,64.4,78,30.08,10.0,ENE,16.1,-,N/A,,Scattered Clouds,60,2013-03-29 07:28:00
9:53 PM,72.0,64.0,76,30.09,10.0,NE,15.0,-,N/A,,Scattered Clouds,50,2013-03-29 07:53:00
10:11 PM,71.6,64.4,78,30.09,10.0,NE,15.0,-,N/A,,Mostly Cloudy,50,2013-03-29 08:11:00
10:44 PM,71.6,64.4,78,30.10,10.0,ENE,15.0,-,N/A,,Scattered Clouds,60,2013-03-29 08:44:00
10:53 PM,72.0,64.9,78,30.09,10.0,ENE,15.0,-,N/A,,Mostly Cloudy,60,2013-03-29 08:53:00
11:09 PM,71.6,64.4,78,30.10,10.0,ENE,13.8,-,N/A,,Scattered Clouds,60,2013-03-29 09:09:00
11:16 PM,71.6,64.4,78,30.10,10.0,ENE,13.8,-,N/A,,Mostly Cloudy,60,2013-03-29 09:16:00
11:31 PM,71.6,64.4,78,30.10,10.0,ENE,13.8,-,N/A,,Scattered Clouds,60,2013-03-29 09:31:00
11:42 PM,71.6,64.4,78,30.10,10.0,ENE,13.8,-,N/A,,Mostly Cloudy,70,2013-03-29 09:42:00
11:53 PM,71.1,64.0,78,30.09,10.0,ENE,15.0,-,N/A,,Scattered Clouds,60,2013-03-29 09:53:00